createdAt,value
2023-01-13T00:01:45.540Z,6.75
2023-01-13T00:06:43.960Z,5.82
2023-01-13T00:09:13.359Z,8.00
2023-01-13T00:11:42.517Z,8.65
2023-01-13T00:14:11.820Z,10.35
2023-01-13T00:16:42.240Z,7.32
2023-01-13T00:19:11.561Z,7.38
2023-01-13T00:21:40.878Z,8.27
2023-01-13T00:26:39.546Z,8.05
2023-01-13T00:29:09.378Z,8.65
2023-01-13T00:31:38.416Z,9.35
2023-01-13T00:34:09.387Z,7.68
2023-01-13T00:36:38.510Z,8.60
2023-01-13T00:39:07.836Z,7.82
2023-01-13T00:41:50.824Z,17.85
2023-01-13T00:44:20.449Z,10.05
2023-01-13T00:46:49.544Z,7.97
2023-01-13T00:49:20.329Z,5.75
2023-01-13T00:51:49.370Z,5.78
2023-01-13T00:56:47.796Z,6.77
2023-01-13T00:59:17.174Z,9.13
2023-01-13T01:01:46.378Z,9.15
2023-01-13T01:06:46.074Z,9.77
2023-01-13T01:09:17.112Z,10.77
2023-01-13T01:11:46.889Z,8.63
2023-01-13T01:14:16.523Z,7.70
2023-01-13T01:16:46.832Z,12.75
2023-01-13T01:19:16.236Z,10.45
2023-01-13T01:21:47.088Z,11.63
2023-01-13T01:24:17.224Z,15.20
2023-01-13T01:26:46.285Z,15.05
2023-01-13T01:29:16.616Z,13.05
2023-01-13T01:31:46.195Z,9.63
2023-01-13T01:36:45.884Z,8.05
2023-01-13T01:39:15.445Z,7.78
2023-01-13T01:42:04.670Z,12.32
2023-01-13T01:47:21.315Z,8.77
2023-01-13T01:49:51.705Z,10.93
2023-01-13T01:52:26.448Z,11.57
2023-01-13T01:54:59.853Z,9.50
2023-01-13T01:57:37.052Z,7.55
2023-01-13T02:00:08.334Z,8.88
2023-01-13T02:02:46.665Z,10.80
2023-01-13T02:05:17.047Z,9.77
2023-01-13T02:07:50.767Z,7.53
2023-01-13T02:10:21.615Z,9.95
2023-01-13T02:12:51.877Z,7.50
2023-01-13T02:15:24.367Z,6.88
2023-01-13T02:18:17.470Z,6.47
2023-01-13T02:21:36.702Z,10.10
2023-01-13T02:25:03.038Z,6.50
2023-01-13T02:27:59.337Z,7.38
2023-01-13T02:31:00.910Z,10.73
2023-01-13T02:33:43.253Z,9.85
2023-01-13T02:36:20.865Z,6.95
2023-01-13T02:38:59.365Z,7.85
2023-01-13T02:41:52.996Z,9.07
2023-01-13T02:44:29.091Z,7.53
2023-01-13T02:47:05.409Z,10.48
2023-01-13T02:49:39.006Z,7.45
2023-01-13T02:52:13.591Z,8.05
2023-01-13T02:54:48.977Z,7.18
2023-01-13T02:57:21.915Z,7.80
2023-01-13T02:59:54.314Z,9.40
2023-01-13T03:02:26.719Z,5.22
2023-01-13T03:04:57.986Z,6.13
2023-01-13T03:07:59.169Z,5.68
2023-01-13T03:10:47.558Z,5.90
2023-01-13T03:13:26.431Z,4.70
2023-01-13T03:16:02.002Z,5.15
2023-01-13T03:18:44.317Z,5.90
2023-01-13T03:21:21.435Z,6.90
2023-01-13T03:23:54.984Z,6.38
2023-01-13T03:26:29.818Z,5.97
2023-01-13T03:29:07.835Z,4.55
2023-01-13T03:31:44.202Z,6.40
2023-01-13T03:34:19.660Z,7.30
2023-01-13T03:36:54.240Z,6.30
2023-01-13T03:39:31.201Z,7.57
2023-01-13T03:42:05.720Z,5.80
2023-01-13T03:44:38.606Z,3.40
2023-01-13T03:47:16.149Z,4.80
2023-01-13T03:49:54.414Z,5.05
2023-01-13T03:52:30.573Z,3.17
2023-01-13T03:55:05.382Z,4.45
2023-01-13T03:57:39.898Z,3.40
2023-01-13T04:00:13.525Z,4.00
2023-01-13T04:02:52.527Z,4.03
2023-01-13T04:05:23.662Z,3.53
2023-01-13T04:08:01.638Z,4.10
2023-01-13T04:10:37.125Z,2.65
2023-01-13T04:13:11.633Z,3.65
2023-01-13T04:15:43.619Z,2.45
2023-01-13T04:18:19.275Z,2.47
2023-01-13T04:20:52.117Z,5.50
2023-01-13T04:23:22.846Z,4.07
2023-01-13T04:25:52.393Z,2.72
2023-01-13T04:28:22.332Z,2.90
2023-01-13T04:33:22.161Z,2.50
2023-01-13T04:35:53.737Z,2.92
2023-01-13T04:38:23.660Z,3.63
2023-01-13T04:43:21.845Z,3.58
2023-01-13T04:45:51.539Z,4.15
2023-01-13T04:48:20.884Z,5.30
2023-01-13T04:50:51.469Z,3.83
2023-01-13T04:53:22.137Z,2.60
2023-01-13T04:55:52.260Z,5.78
2023-01-13T04:58:22.737Z,2.75
2023-01-13T05:00:52.522Z,4.05
2023-01-13T05:03:21.972Z,3.85
2023-01-13T05:05:54.418Z,3.47
2023-01-13T05:08:23.805Z,3.70
2023-01-13T05:10:52.812Z,3.40
2023-01-13T05:13:39.733Z,2.17
2023-01-13T05:16:37.658Z,3.83
2023-01-13T05:19:07.098Z,3.92
2023-01-13T05:21:54.691Z,5.55
2023-01-13T05:24:41.684Z,3.85
2023-01-13T05:27:11.193Z,3.95
2023-01-13T05:32:09.262Z,2.77
2023-01-13T05:34:38.516Z,3.88
2023-01-13T05:37:11.206Z,3.28
2023-01-13T05:39:54.535Z,2.30
2023-01-13T05:42:41.193Z,2.30
2023-01-13T05:45:12.217Z,2.70
2023-01-13T05:47:41.592Z,3.03
2023-01-13T05:50:12.196Z,2.15
2023-01-13T05:52:43.561Z,2.65
2023-01-13T05:55:14.710Z,3.95
2023-01-13T05:57:43.716Z,1.38
2023-01-13T06:00:14.648Z,2.92
2023-01-13T06:02:43.987Z,2.85
2023-01-13T06:05:13.338Z,2.53
2023-01-13T06:07:43.814Z,2.25
2023-01-13T06:10:13.633Z,1.50
2023-01-13T06:12:42.751Z,3.60
2023-01-13T06:15:12.651Z,2.42
2023-01-13T06:17:41.643Z,2.42
2023-01-13T06:20:12.218Z,3.17
2023-01-13T06:22:45.813Z,1.88
2023-01-13T06:25:22.946Z,2.45
2023-01-13T06:27:53.228Z,1.67
2023-01-13T06:30:22.619Z,1.92
2023-01-13T06:32:54.325Z,2.25
2023-01-13T06:35:29.644Z,1.45
2023-01-13T06:38:04.157Z,1.95
2023-01-13T06:40:33.594Z,2.05
2023-01-13T06:43:17.326Z,1.73
2023-01-13T06:45:50.420Z,2.58
2023-01-13T06:48:23.359Z,1.80
2023-01-13T06:50:52.887Z,1.67
2023-01-13T06:53:23.254Z,2.00
2023-01-13T06:55:52.639Z,1.75
2023-01-13T06:58:21.749Z,2.22
2023-01-13T07:03:21.492Z,2.20
2023-01-13T07:05:55.363Z,2.45
2023-01-13T07:08:26.367Z,1.80
2023-01-13T07:10:55.847Z,1.38
2023-01-13T07:13:42.561Z,1.95
2023-01-13T07:16:12.157Z,1.98
2023-01-13T07:18:41.192Z,2.00
2023-01-13T07:21:13.227Z,2.13
2023-01-13T07:23:43.820Z,2.40
2023-01-13T07:26:13.971Z,2.20
2023-01-13T07:28:43.400Z,2.33
2023-01-13T07:31:17.987Z,1.90
2023-01-13T07:33:47.339Z,4.10
2023-01-13T07:36:17.141Z,2.72
2023-01-13T07:41:34.979Z,2.45
2023-01-13T07:44:06.738Z,2.15
2023-01-13T07:46:36.502Z,1.92
2023-01-13T07:49:05.747Z,2.53
2023-01-13T07:54:07.821Z,1.92
2023-01-13T07:56:37.424Z,3.10
2023-01-13T07:59:06.390Z,2.00
2023-01-13T08:01:36.109Z,2.35
2023-01-13T08:04:05.347Z,4.32
2023-01-13T08:06:34.608Z,6.57
2023-01-13T08:09:05.331Z,3.80
2023-01-13T08:11:34.793Z,3.17
2023-01-13T08:14:04.040Z,2.92
2023-01-13T08:19:03.655Z,2.50
2023-01-13T08:21:32.916Z,4.00
2023-01-13T08:24:02.074Z,5.07
2023-01-13T08:26:32.982Z,4.32
2023-01-13T08:29:02.099Z,3.05
2023-01-13T08:31:31.390Z,2.47
2023-01-13T08:34:00.506Z,3.03
2023-01-13T08:36:29.767Z,3.78
2023-01-13T08:38:58.874Z,2.13
2023-01-13T08:41:44.904Z,2.85
2023-01-13T08:44:15.636Z,1.75
2023-01-13T08:46:45.024Z,3.05
2023-01-13T08:49:14.079Z,3.55
2023-01-13T08:51:43.525Z,3.15
2023-01-13T08:54:12.910Z,3.33
2023-01-13T08:56:43.277Z,3.55
2023-01-13T08:59:16.045Z,2.97
2023-01-13T09:01:46.079Z,3.67
2023-01-13T09:04:20.196Z,3.17
2023-01-13T09:06:50.745Z,3.00
2023-01-13T09:09:20.328Z,3.58
2023-01-13T09:12:09.709Z,3.42
2023-01-13T09:14:41.142Z,3.30
2023-01-13T09:17:12.168Z,4.60
2023-01-13T09:19:41.875Z,3.00
2023-01-13T09:22:15.879Z,3.42
2023-01-13T09:24:45.526Z,3.45
2023-01-13T09:27:16.289Z,2.53
2023-01-13T09:29:46.695Z,2.80
2023-01-13T09:32:16.917Z,2.72
2023-01-13T09:35:00.162Z,3.65
2023-01-13T09:37:30.997Z,4.03
2023-01-13T09:40:00.151Z,7.53
2023-01-13T09:42:58.978Z,2.95
2023-01-13T09:45:33.725Z,6.93
2023-01-13T09:48:09.875Z,3.88
2023-01-13T09:50:56.440Z,3.88
2023-01-13T09:53:30.433Z,3.55
2023-01-13T09:55:59.717Z,4.03
2023-01-13T09:58:29.310Z,4.30
2023-01-13T10:01:17.173Z,4.18
2023-01-13T10:03:49.136Z,4.65
2023-01-13T10:06:22.210Z,4.50
2023-01-13T10:08:52.420Z,3.80
2023-01-13T10:11:41.393Z,4.53
2023-01-13T10:14:18.910Z,4.20
2023-01-13T10:16:56.373Z,5.47
2023-01-13T10:19:31.335Z,5.03
2023-01-13T10:22:36.509Z,4.05
2023-01-13T10:25:31.236Z,6.22
2023-01-13T10:28:09.193Z,5.93
2023-01-13T10:30:40.396Z,5.53
2023-01-13T10:33:15.869Z,4.38
2023-01-13T10:36:00.283Z,4.72
2023-01-13T10:38:32.184Z,3.60
2023-01-13T10:41:03.357Z,7.80
2023-01-13T10:43:33.505Z,5.25
2023-01-13T10:46:06.468Z,4.18
2023-01-13T10:48:42.468Z,6.38
2023-01-13T10:51:23.210Z,5.80
2023-01-13T10:53:58.768Z,6.10
2023-01-13T10:56:30.915Z,3.20
2023-01-13T10:59:23.548Z,3.92
2023-01-13T11:02:03.891Z,4.70
2023-01-13T11:04:38.212Z,5.30
2023-01-13T11:07:21.670Z,3.92
2023-01-13T11:10:12.098Z,6.20
2023-01-13T11:12:50.869Z,3.25
2023-01-13T11:15:24.872Z,4.75
2023-01-13T11:18:00.814Z,3.20
2023-01-13T11:20:37.160Z,4.38
2023-01-13T11:23:16.897Z,4.13
2023-01-13T11:25:50.417Z,5.13
2023-01-13T11:28:50.312Z,3.55
2023-01-13T11:31:24.557Z,2.90
2023-01-13T11:34:00.820Z,3.97
2023-01-13T11:36:39.376Z,3.92
2023-01-13T11:39:22.324Z,4.13
2023-01-13T11:42:12.717Z,4.78
2023-01-13T11:44:47.613Z,4.40
2023-01-13T11:47:22.478Z,3.78
2023-01-13T11:49:52.028Z,4.20
2023-01-13T11:52:30.724Z,5.20
2023-01-13T11:55:15.458Z,4.28
2023-01-13T11:57:56.952Z,3.30
2023-01-13T12:01:00.430Z,3.63
2023-01-13T12:03:35.830Z,3.78
2023-01-13T12:06:21.043Z,3.53
2023-01-13T12:09:05.069Z,6.18
2023-01-13T12:12:00.264Z,3.83
2023-01-13T12:14:39.879Z,4.25
2023-01-13T12:17:21.342Z,3.47
2023-01-13T12:19:52.573Z,4.07
2023-01-13T12:22:27.387Z,6.57
2023-01-13T12:25:07.812Z,2.65
2023-01-13T12:27:47.268Z,4.28
2023-01-13T12:30:26.692Z,3.15
2023-01-13T12:35:40.048Z,3.20
2023-01-13T12:38:19.463Z,4.05
2023-01-13T12:40:57.745Z,3.47
2023-01-13T12:43:44.807Z,4.60
2023-01-13T12:46:53.395Z,3.50
2023-01-13T12:49:25.301Z,4.60
2023-01-13T12:52:24.586Z,3.67
2023-01-13T12:55:15.536Z,5.55
2023-01-13T12:58:27.245Z,4.95
2023-01-13T13:01:01.340Z,3.25
2023-01-13T13:03:35.659Z,5.88
2023-01-13T13:06:19.614Z,5.32
2023-01-13T13:09:03.667Z,8.07
2023-01-13T13:11:59.375Z,6.53
2023-01-13T13:15:07.191Z,10.75
2023-01-13T13:17:43.472Z,4.88
2023-01-13T13:20:53.846Z,4.80
2023-01-13T13:24:01.092Z,7.28
2023-01-13T13:26:38.516Z,5.80
2023-01-13T13:29:39.247Z,8.10
2023-01-13T13:32:47.132Z,8.85
2023-01-13T13:35:32.407Z,10.55
2023-01-13T13:38:34.905Z,7.20
2023-01-13T13:41:29.814Z,7.78
2023-01-13T13:44:21.634Z,9.65
2023-01-13T13:46:51.467Z,9.00
2023-01-13T13:49:22.384Z,8.07
2023-01-13T13:52:00.957Z,7.25
2023-01-13T13:54:30.654Z,9.00
2023-01-13T13:57:01.041Z,9.13
2023-01-13T13:59:33.630Z,7.05
2023-01-13T14:02:04.962Z,8.93
2023-01-13T14:04:41.378Z,7.60
2023-01-13T14:07:21.078Z,7.85
2023-01-13T14:09:53.786Z,9.02
2023-01-13T14:12:25.703Z,7.30
2023-01-13T14:14:57.490Z,7.43
2023-01-13T14:17:29.786Z,7.05
2023-01-13T14:20:07.995Z,6.90
2023-01-13T14:22:40.584Z,5.57
2023-01-13T14:25:29.941Z,7.78
2023-01-13T14:28:04.265Z,6.25
2023-01-13T14:30:35.150Z,6.80
2023-01-13T14:33:06.613Z,9.73
2023-01-13T14:35:35.883Z,14.27
2023-01-13T14:38:06.575Z,12.60
2023-01-13T14:40:46.544Z,7.55
2023-01-13T14:43:19.332Z,15.05
2023-01-13T14:46:00.133Z,8.07
2023-01-13T14:48:35.612Z,9.60
2023-01-13T14:51:06.781Z,8.77
2023-01-13T14:53:43.240Z,8.90
2023-01-13T14:56:44.531Z,8.80
2023-01-13T14:59:36.804Z,6.93
2023-01-13T15:02:38.293Z,5.70
2023-01-13T15:05:49.303Z,3.55
2023-01-13T15:08:28.889Z,5.45
2023-01-13T15:13:45.416Z,8.13
2023-01-13T15:16:24.464Z,7.32
2023-01-13T15:18:54.332Z,4.88
2023-01-13T15:21:24.771Z,5.35
2023-01-13T15:23:53.866Z,5.57
2023-01-13T15:26:27.758Z,6.10
2023-01-13T15:28:58.550Z,8.73
2023-01-13T15:31:29.244Z,5.20
2023-01-13T15:33:58.896Z,10.20
2023-01-13T15:36:31.262Z,8.75
2023-01-13T15:39:02.316Z,16.13
2023-01-13T15:42:02.106Z,8.93
2023-01-13T15:44:48.735Z,12.63
2023-01-13T15:47:18.201Z,8.82
2023-01-13T15:49:48.427Z,7.28
2023-01-13T15:52:22.045Z,12.07
2023-01-13T15:54:55.050Z,6.57
2023-01-13T15:57:27.789Z,9.68
2023-01-13T15:59:58.936Z,7.03
2023-01-13T16:02:31.131Z,7.38
2023-01-13T16:05:00.354Z,10.18
2023-01-13T16:07:29.614Z,7.88
2023-01-13T16:10:01.766Z,7.63
2023-01-13T16:12:38.199Z,12.10
2023-01-13T16:15:10.475Z,7.47
2023-01-13T16:17:41.485Z,7.95
2023-01-13T16:22:46.340Z,10.93
2023-01-13T16:25:19.072Z,6.00
2023-01-13T16:27:51.485Z,5.30
2023-01-13T16:30:26.744Z,6.22
2023-01-13T16:32:56.712Z,8.48
2023-01-13T16:37:58.455Z,7.82
2023-01-13T16:40:31.283Z,4.15
2023-01-13T16:43:03.740Z,10.25
2023-01-13T16:45:33.608Z,6.65
2023-01-13T16:48:03.351Z,6.18
2023-01-13T16:50:37.456Z,8.35
2023-01-13T16:53:09.307Z,6.50
2023-01-13T16:55:39.978Z,8.57
2023-01-13T16:58:18.137Z,11.75
2023-01-13T17:00:48.532Z,9.05
2023-01-13T17:03:18.438Z,3.63
2023-01-13T17:05:48.313Z,12.65
2023-01-13T17:08:19.076Z,7.30
2023-01-13T17:10:49.377Z,5.43
2023-01-13T17:13:20.944Z,4.80
2023-01-13T17:15:50.099Z,5.45
2023-01-13T17:18:19.393Z,7.53
2023-01-13T17:20:48.594Z,6.25
2023-01-13T17:23:18.173Z,10.82
2023-01-13T17:25:47.354Z,8.82
2023-01-13T17:28:16.662Z,8.18
2023-01-13T17:30:47.171Z,7.60
2023-01-13T17:33:16.592Z,12.93
2023-01-13T17:35:46.199Z,8.10
2023-01-13T17:40:44.342Z,5.85
2023-01-13T17:43:13.632Z,8.07
2023-01-13T17:45:43.029Z,5.65
2023-01-13T17:50:48.619Z,7.88
2023-01-13T17:53:18.213Z,7.85
2023-01-13T17:55:51.722Z,8.25
2023-01-13T17:58:21.938Z,7.45
2023-01-13T18:00:51.773Z,8.32
2023-01-13T18:03:23.175Z,6.22
2023-01-13T18:05:52.493Z,6.70
2023-01-13T18:08:23.732Z,7.03
2023-01-13T18:10:54.734Z,9.65
2023-01-13T18:13:24.156Z,7.60
2023-01-13T18:16:03.114Z,8.27
2023-01-13T18:18:35.594Z,7.43
2023-01-13T18:21:23.063Z,11.43
2023-01-13T18:24:10.215Z,9.75
2023-01-13T18:26:56.974Z,9.07
2023-01-13T18:29:26.430Z,8.43
2023-01-13T18:31:55.459Z,6.40
2023-01-13T18:34:26.223Z,6.65
2023-01-13T18:36:56.130Z,11.35
2023-01-13T18:39:25.423Z,6.15
2023-01-13T18:42:12.147Z,10.73
2023-01-13T18:44:43.975Z,8.73
2023-01-13T18:47:13.234Z,5.88
2023-01-13T18:49:43.916Z,9.63
2023-01-13T18:52:14.159Z,11.65
2023-01-13T18:54:43.460Z,10.38
2023-01-13T18:57:14.767Z,6.53
2023-01-13T18:59:47.437Z,10.02
2023-01-13T19:02:18.115Z,7.07
2023-01-13T19:04:49.200Z,6.07
2023-01-13T19:07:23.597Z,6.18
2023-01-13T19:09:55.340Z,6.32
2023-01-13T19:12:27.547Z,4.20
2023-01-13T19:14:58.109Z,4.95
2023-01-13T19:17:31.233Z,8.40
2023-01-13T19:20:02.115Z,9.57
2023-01-13T19:22:36.775Z,5.30
2023-01-13T19:25:08.950Z,8.43
2023-01-13T19:27:40.232Z,10.80
2023-01-13T19:30:15.818Z,9.20
2023-01-13T19:32:47.836Z,7.35
2023-01-13T19:37:49.560Z,10.48
2023-01-13T19:40:19.417Z,6.32
2023-01-13T19:45:36.282Z,10.50
2023-01-13T19:48:08.527Z,8.73
2023-01-13T19:50:40.823Z,6.20
2023-01-13T19:53:15.539Z,6.85
2023-01-13T19:55:48.611Z,6.65
2023-01-13T19:58:18.907Z,8.00
2023-01-13T20:00:49.291Z,7.75
2023-01-13T20:03:23.634Z,12.20
2023-01-13T20:05:58.025Z,9.75
2023-01-13T20:08:27.140Z,8.93
2023-01-13T20:11:16.509Z,8.57
2023-01-13T20:13:45.774Z,10.07
2023-01-13T20:16:15.465Z,11.57
2023-01-13T20:18:44.602Z,9.73
2023-01-13T20:21:15.485Z,12.02
2023-01-13T20:23:46.196Z,7.50
2023-01-13T20:26:16.113Z,8.43
2023-01-13T20:28:45.288Z,10.45
2023-01-13T20:31:16.778Z,11.95
2023-01-13T20:33:51.594Z,10.45
2023-01-13T20:36:31.335Z,9.02
2023-01-13T20:39:01.685Z,11.25
2023-01-13T20:41:49.206Z,11.05
2023-01-13T20:44:18.608Z,14.60
2023-01-13T20:46:47.900Z,9.98
2023-01-13T20:49:19.647Z,12.63
2023-01-13T20:51:50.680Z,11.30
2023-01-13T20:54:20.321Z,9.10
2023-01-13T20:56:49.995Z,7.38
2023-01-13T20:59:20.038Z,8.57
2023-01-13T21:01:49.614Z,12.85
2023-01-13T21:04:18.709Z,12.13
2023-01-13T21:06:49.926Z,5.03
2023-01-13T21:09:19.406Z,10.00
2023-01-13T21:12:05.990Z,8.85
2023-01-13T21:14:53.079Z,11.30
2023-01-13T21:17:54.163Z,14.55
2023-01-13T21:20:23.647Z,10.52
2023-01-13T21:22:54.511Z,9.68
2023-01-13T21:25:25.866Z,7.97
2023-01-13T21:28:04.133Z,7.95
2023-01-13T21:30:34.295Z,6.10
2023-01-13T21:33:05.416Z,9.63
2023-01-13T21:35:34.918Z,6.90
2023-01-13T21:38:06.425Z,5.40
2023-01-13T21:40:37.137Z,7.60
2023-01-13T21:43:23.934Z,8.48
2023-01-13T21:46:10.282Z,9.48
2023-01-13T21:48:39.766Z,7.53
2023-01-13T21:51:08.875Z,8.23
2023-01-13T21:53:40.651Z,8.15
2023-01-13T21:56:10.993Z,6.43
2023-01-13T21:58:40.578Z,7.57
2023-01-13T22:01:11.967Z,7.80
2023-01-13T22:03:59.593Z,5.18
2023-01-13T22:06:28.904Z,5.97
2023-01-13T22:09:01.247Z,6.45
2023-01-13T22:11:31.777Z,11.07
2023-01-13T22:14:07.588Z,14.57
2023-01-13T22:16:39.415Z,11.48
2023-01-13T22:19:10.500Z,5.45
2023-01-13T22:21:40.084Z,6.50
2023-01-13T22:24:11.771Z,8.85
2023-01-13T22:26:40.916Z,9.23
2023-01-13T22:29:10.228Z,8.68
2023-01-13T22:31:40.217Z,9.95
2023-01-13T22:34:12.952Z,10.50
2023-01-13T22:36:41.995Z,8.05
2023-01-13T22:39:12.827Z,5.53
2023-01-13T22:41:42.100Z,9.30
2023-01-13T22:44:11.452Z,10.30
2023-01-13T22:46:40.610Z,9.35
2023-01-13T22:49:09.898Z,6.50
2023-01-13T22:51:39.283Z,10.45
2023-01-13T22:54:08.923Z,3.90
2023-01-13T22:56:39.842Z,9.02
2023-01-13T22:59:12.041Z,10.27
2023-01-13T23:01:42.205Z,10.82
2023-01-13T23:04:13.949Z,10.15
2023-01-13T23:06:43.243Z,8.65
2023-01-13T23:09:12.606Z,8.88
2023-01-13T23:11:43.374Z,8.90
2023-01-13T23:14:13.953Z,6.15
2023-01-13T23:16:43.155Z,6.72
2023-01-13T23:19:13.454Z,6.15
2023-01-13T23:21:42.671Z,4.38
2023-01-13T23:24:12.167Z,5.43
2023-01-13T23:26:42.972Z,6.18
2023-01-13T23:29:14.935Z,10.77
2023-01-13T23:31:44.311Z,10.05
2023-01-13T23:34:13.629Z,5.43
2023-01-13T23:36:43.834Z,7.03
2023-01-13T23:39:16.412Z,5.97
2023-01-13T23:41:46.828Z,8.50
2023-01-13T23:44:16.453Z,8.80
2023-01-13T23:46:45.634Z,5.28
2023-01-13T23:49:14.899Z,8.73
2023-01-13T23:51:44.112Z,9.38
2023-01-13T23:54:13.438Z,5.90
2023-01-13T23:56:42.818Z,9.50
2023-01-13T23:59:13.780Z,4.45
